Time;durP1;ratioP1;P1;durP2;ratioP2;P2;SDS_P1;SDS_P2;PMS_P1;PMS_P2;Temp;Humidity;BMP_temperature;BMP_pressure;BME280_temperature;BME280_humidity;BME280_pressure;Samples;Min_cycle;Max_cycle;Signal;HPM_P1;HPM_P2
2021/03/19 00:01:24;;;;;;;130.87;39.55;;;;;;;0.37;100.00;100492.69;10298455;85;99216;-83
2021/03/19 00:16:28;;;;;;;59.55;25.40;;;;;;;0.32;100.00;100504.52;10316682;85;99321;-82
2021/03/19 00:31:33;;;;;;;94.55;40.25;;;;;;;0.46;100.00;100481.53;10351757;84;99123;-82
2021/03/19 00:46:38;;;;;;;87.85;37.48;;;;;;;0.54;100.00;100490.68;10227110;85;99147;-82
2021/03/19 01:01:43;;;;;;;44.18;17.75;;;;;;;0.70;100.00;100496.88;10296165;84;99301;-83
2021/03/19 01:16:47;;;;;;;101.90;46.80;;;;;;;0.69;100.00;100486.59;10378993;83;99037;-83
2021/03/19 01:31:51;;;;;;;40.92;22.52;;;;;;;0.64;100.00;100476.01;10485151;84;99429;-83
2021/03/19 01:47:51;;;;;;;30.23;15.65;;;;;;;0.68;100.00;100476.72;10416258;84;99172;-83
2021/03/19 02:03:49;;;;;;;32.48;13.60;;;;;;;0.71;100.00;100488.20;10326484;85;99110;-83
2021/03/19 02:19:48;;;;;;;22.93;11.10;;;;;;;0.82;100.00;100496.33;10386965;85;99077;-83
2021/03/19 02:34:57;;;;;;;32.17;15.20;;;;;;;0.81;100.00;100486.89;10458885;84;99119;-83
2021/03/19 02:50:01;;;;;;;22.27;12.73;;;;;;;0.61;100.00;100467.58;10464370;85;99114;-82
2021/03/19 03:05:09;;;;;;;32.50;14.40;;;;;;;0.61;100.00;100467.58;10479505;84;99147;-83
2021/03/19 03:20:18;;;;;;;17.73;9.58;;;;;;;0.42;100.00;100481.28;10420890;84;99124;-83
2021/03/19 03:35:24;;;;;;;21.77;9.67;;;;;;;0.37;100.00;100478.05;10280820;84;99112;-83
2021/03/19 03:50:32;;;;;;;26.57;13.95;;;;;;;0.66;100.00;100488.88;10370963;84;98454;-84
2021/03/19 04:05:42;;;;;;;33.23;15.67;;;;;;;0.53;100.00;100498.03;10354187;85;99821;-84
2021/03/19 04:20:51;;;;;;;30.70;14.70;;;;;;;0.61;100.00;100493.40;10395308;84;99172;-83
2021/03/19 04:36:04;;;;;;;29.35;13.65;;;;;;;0.33;100.00;100485.55;10090744;86;99179;-83
2021/03/19 04:51:09;;;;;;;33.88;15.28;;;;;;;0.40;100.00;100480.96;10119810;86;99227;-83
2021/03/19 05:06:17;;;;;;;39.80;18.98;;;;;;;0.55;100.00;100488.49;10124291;86;99263;-82
2021/03/19 05:21:21;;;;;;;31.00;16.12;;;;;;;0.40;100.00;100479.67;10386245;84;99140;-79
2021/03/19 05:36:30;;;;;;;56.47;23.63;;;;;;;0.13;100.00;100473.02;10414623;84;99046;-80
2021/03/19 05:51:36;;;;;;;;;;;;;;;0.26;100.00;100474.61;10389288;84;99131;-79
2021/03/19 06:07:02;;;;;;;36.08;17.82;;;;;;;0.48;100.00;100489.21;10370006;83;85414;-79
2021/03/19 06:22:16;;;;;;;67.43;47.17;;;;;;;0.48;100.00;100489.21;10276991;84;99092;-84
2021/03/19 06:37:33;;;;;;;77.87;31.97;;;;;;;0.90;100.00;100487.38;10152226;86;98844;-85
2021/03/19 06:52:37;;;;;;;51.60;29.75;;;;;;;1.07;100.00;100479.73;10211958;85;99099;-87
2021/03/19 07:07:58;;;;;;;169.57;89.03;;;;;;;1.07;100.00;100479.73;10260883;85;99147;-87
2021/03/19 07:23:16;;;;;;;53.87;27.93;;;;;;;1.02;100.00;100492.02;10265276;85;99430;-84
2021/03/19 07:39:10;;;;;;;103.22;47.00;;;;;;;1.19;100.00;100486.53;10237071;86;98719;-81
2021/03/19 07:54:21;;;;;;;124.47;58.00;;;;;;;1.19;100.00;100486.53;9854069;89;99223;-82
2021/03/19 08:09:49;;;;;;;37.53;18.02;;;;;;;1.38;100.00;100486.53;9878393;90;99587;-82
2021/03/19 08:25:00;;;;;;;78.02;46.48;;;;;;;1.21;100.00;100476.50;10098935;86;98551;-81
2021/03/19 08:40:11;;;;;;;48.78;29.32;;;;;;;1.21;100.00;100483.44;10246697;84;99076;-85
2021/03/19 08:55:31;;;;;;;44.90;18.97;;;;;;;0.92;100.00;100480.42;10213580;85;99138;-90
2021/03/19 09:11:11;;;;;;;20.15;9.85;;;;;;;1.64;100.00;100490.48;10274475;85;99073;-91
2021/03/19 09:26:47;;;;;;;19.70;10.13;;;;;;;1.64;100.00;100490.48;10094829;84;99064;-88
2021/03/19 09:41:54;;;;;;;65.55;30.37;;;;;;;2.52;100.00;100508.64;10136056;85;99242;-89
2021/03/19 09:57:08;;;;;;;20.05;10.08;;;;;;;1.99;100.00;100521.57;10267178;86;99120;-90
2021/03/19 10:12:18;;;;;;;95.10;26.42;;;;;;;1.49;100.00;100527.79;10022853;87;99180;-88
2021/03/19 10:27:25;;;;;;;14.40;7.30;;;;;;;1.46;100.00;100556.35;10270301;85;99021;-86
2021/03/19 10:42:33;;;;;;;;;;;;;;;1.25;100.00;100571.55;10266973;84;98882;-84
2021/03/19 10:57:41;;;;;;;33.92;13.60;;;;;;;1.36;100.00;100593.05;10401112;84;83767;-85
2021/03/19 11:12:49;;;;;;;17.23;8.87;;;;;;;1.46;100.00;100595.14;10408410;84;98699;-86
2021/03/19 11:27:55;;;;;;;19.48;8.40;;;;;;;0.88;100.00;100635.17;10376475;84;98943;-84
2021/03/19 11:43:00;;;;;;;40.65;17.05;;;;;;;0.72;100.00;100648.71;10368338;83;99039;-85
2021/03/19 11:58:10;;;;;;;45.23;17.40;;;;;;;0.57;100.00;100651.48;10370477;83;99087;-85
2021/03/19 12:13:16;;;;;;;42.17;16.00;;;;;;;1.33;100.00;100676.30;10416199;83;99095;-84
2021/03/19 12:28:22;;;;;;;24.60;10.47;;;;;;;1.33;100.00;100676.30;10319480;85;98761;-84
2021/03/19 12:43:29;;;;;;;12.63;5.45;;;;;;;2.42;100.00;100703.33;10342592;84;99149;-82
2021/03/19 12:58:33;;;;;;;57.55;16.93;;;;;;;2.90;87.37;100698.42;10391929;85;98954;-84
2021/03/19 13:13:38;;;;;;;35.05;11.65;;;;;;;2.95;80.92;100696.92;10179645;86;98957;-79
2021/03/19 13:28:43;;;;;;;16.32;7.12;;;;;;;2.49;64.10;100706.45;10105179;86;99027;-85
2021/03/19 13:43:48;;;;;;;27.42;15.05;;;;;;;4.75;60.85;100701.25;10143411;86;98890;-86
2021/03/19 13:58:53;;;;;;;183.37;63.48;;;;;;;4.51;51.16;100704.30;10204179;86;98751;-85
2021/03/19 14:13:58;;;;;;;33.50;18.23;;;;;;;11.78;48.09;100712.78;10213314;86;99209;-80
2021/03/19 14:29:03;;;;;;;52.93;19.42;;;;;;;17.12;34.89;100729.89;10254503;86;99282;-81
2021/03/19 14:44:07;;;;;;;34.35;15.43;;;;;;;19.99;33.15;100736.62;10211361;86;99218;-85
2021/03/19 14:59:13;;;;;;;34.70;15.43;;;;;;;19.68;31.29;100742.98;10182116;86;99303;-84
2021/03/19 15:14:19;;;;;;;52.90;24.50;;;;;;;19.68;31.29;100742.98;10136233;87;99385;-85
2021/03/19 15:29:23;;;;;;;30.50;13.55;;;;;;;9.59;36.30;100742.33;10151587;86;99408;-86
2021/03/19 15:44:29;;;;;;;49.13;24.67;;;;;;;9.21;39.04;100752.16;10183332;87;99240;-82
2021/03/19 15:59:34;;;;;;;41.25;17.65;;;;;;;8.35;38.73;100770.14;10172979;87;98765;-88
2021/03/19 16:14:40;;;;;;;27.27;12.70;;;;;;;6.78;39.08;100778.47;10204671;86;99319;-80
2021/03/19 16:29:46;;;;;;;36.98;15.03;;;;;;;4.89;39.53;100797.50;10203369;86;98932;-80
2021/03/19 16:44:51;;;;;;;115.72;53.08;;;;;;;3.83;40.88;100817.84;10063931;87;98934;-79
2021/03/19 16:59:57;;;;;;;114.40;44.60;;;;;;;2.10;43.47;100830.35;10321573;84;98842;-79
2021/03/19 17:15:07;;;;;;;100.20;39.67;;;;;;;1.54;44.62;100850.82;10324644;84;99107;-79
2021/03/19 17:30:18;;;;;;;98.42;37.40;;;;;;;1.09;46.24;100870.70;10348335;84;98921;-79
2021/03/19 17:45:30;;;;;;;63.50;25.08;;;;;;;0.28;48.25;100882.36;10321776;82;98979;-82
2021/03/19 18:00:34;;;;;;;50.47;20.53;;;;;;;0.28;48.25;100882.36;10343998;85;99090;-82
2021/03/19 18:15:39;;;;;;;59.20;22.65;;;;;;;-0.03;50.12;100893.72;10283825;85;99033;-82
2021/03/19 18:30:44;;;;;;;162.05;54.95;;;;;;;-0.17;50.70;100905.36;10247794;85;99271;-81
2021/03/19 18:45:49;;;;;;;150.82;46.90;;;;;;;-0.30;52.15;100915.69;10345501;84;99235;-82
2021/03/19 19:00:55;;;;;;;141.15;43.70;;;;;;;-0.58;52.47;100915.71;10428844;84;99374;-88
2021/03/19 19:16:04;;;;;;;132.37;48.85;;;;;;;-0.81;53.49;100941.75;10422360;84;98891;-88
2021/03/19 19:31:15;;;;;;;92.17;34.92;;;;;;;-0.98;54.91;100944.83;10428589;83;99336;-88
2021/03/19 19:46:24;;;;;;;113.97;38.90;;;;;;;-1.23;55.48;100962.30;10453480;84;99184;-88
2021/03/19 20:01:32;;;;;;;61.95;25.23;;;;;;;-1.48;56.87;100971.56;10462626;84;99378;-88
2021/03/19 20:16:39;;;;;;;75.57;28.65;;;;;;;-1.47;57.40;100982.27;10456748;84;99116;-88
2021/03/19 20:31:46;;;;;;;72.08;29.52;;;;;;;-1.77;58.86;100986.90;10466097;84;99089;-87
2021/03/19 20:46:52;;;;;;;100.60;38.02;;;;;;;-1.91;60.31;100990.26;10363755;84;99094;-88
2021/03/19 21:02:02;;;;;;;70.62;25.55;;;;;;;-2.06;61.85;101005.60;10422892;83;99389;-82
2021/03/19 21:17:08;;;;;;;157.65;49.48;;;;;;;-2.11;63.72;101016.02;10326292;83;99212;-81
2021/03/19 21:32:13;;;;;;;;;;;;;;;-2.06;64.40;101010.33;10331737;82;99429;-81
2021/03/19 21:47:18;;;;;;;49.40;18.37;;;;;;;-2.40;66.46;101030.80;10711496;82;84667;-82
2021/03/19 22:02:24;;;;;;;43.30;15.50;;;;;;;-2.53;68.37;101046.49;10475260;83;99184;-80
2021/03/19 22:17:29;;;;;;;39.30;12.73;;;;;;;-2.56;69.57;101054.28;10749240;82;99091;-80
2021/03/19 22:32:34;;;;;;;39.65;15.32;;;;;;;-2.70;70.99;101059.69;10746312;80;99160;-80
2021/03/19 22:47:38;;;;;;;37.75;14.90;;;;;;;-2.79;72.51;101071.89;10645269;82;99202;-81
2021/03/19 23:02:43;;;;;;;33.13;14.65;;;;;;;-2.96;73.09;101082.03;10754643;82;99078;-80
2021/03/19 23:17:48;;;;;;;;;;;;;;;-3.12;74.09;101090.92;10790957;81;99051;-81
2021/03/19 23:32:54;;;;;;;129.93;35.17;;;;;;;-3.05;74.44;101096.33;10789428;81;85056;-80
2021/03/19 23:47:59;;;;;;;104.50;29.47;;;;;;;-3.12;74.67;101093.03;10788380;82;99381;-88
